Time,TemperatureF,DewpointF,PressureIn,WindDirection,WindDirectionDegrees,WindSpeedMPH,WindSpeedGustMPH,Humidity,HourlyPrecipIn,Conditions,Clouds,dailyrainin,SolarRadiationWatts/m^2,SoftwareType,DateUTC
2013-08-15 00:01:00,55.4,53.4,30.13,SSE,163,0.0,0.0,90,0.00,,,0.00,0.0,meteohub,2013-08-15 04:01:00,
2013-08-15 00:04:00,55.4,53.4,30.13,SSE,163,0.0,0.0,90,0.00,,,0.00,0.0,meteohub,2013-08-15 04:04:00,
2013-08-15 00:08:00,55.4,53.4,30.13,SSE,163,0.0,0.0,90,0.00,,,0.00,0.0,meteohub,2013-08-15 04:08:00,
2013-08-15 00:11:00,55.2,53.2,30.13,SSE,163,0.0,0.0,90,0.00,,,0.00,0.0,meteohub,2013-08-15 04:11:00,
2013-08-15 00:17:00,55.2,53.2,30.14,SSE,163,0.0,0.0,90,0.00,,,0.00,0.0,meteohub,2013-08-15 04:17:00,
2013-08-15 00:23:00,55.0,53.1,30.14,SSE,163,0.0,0.0,90,0.00,,,0.00,0.0,meteohub,2013-08-15 04:23:00,
2013-08-15 00:29:00,54.9,52.9,30.14,SSE,163,0.0,0.0,90,0.00,,,0.00,0.0,meteohub,2013-08-15 04:29:00,
2013-08-15 00:35:00,54.9,52.9,30.14,SSE,163,0.0,0.0,90,0.00,,,0.00,0.0,meteohub,2013-08-15 04:35:00,
2013-08-15 00:41:00,54.9,52.9,30.14,SSE,163,0.0,0.0,90,0.00,,,0.00,0.0,meteohub,2013-08-15 04:41:00,
2013-08-15 00:47:00,54.7,52.7,30.14,SSE,163,0.0,0.0,90,0.00,,,0.00,0.0,meteohub,2013-08-15 04:47:00,
2013-08-15 00:53:00,54.5,52.5,30.14,SSE,163,0.0,0.0,90,0.00,,,0.00,0.0,meteohub,2013-08-15 04:53:00,
2013-08-15 00:59:00,54.5,52.5,30.14,SSE,163,0.0,0.0,90,0.00,,,0.00,0.0,meteohub,2013-08-15 04:59:00,
2013-08-15 01:05:00,54.3,52.3,30.14,SSE,163,0.0,0.0,90,0.00,,,0.00,0.0,meteohub,2013-08-15 05:05:00,
2013-08-15 01:11:00,54.3,52.3,30.14,SSE,163,0.0,0.0,90,0.00,,,0.00,0.0,meteohub,2013-08-15 05:11:00,
2013-08-15 01:17:00,54.1,52.2,30.14,SSE,163,0.0,0.0,90,0.00,,,0.00,0.0,meteohub,2013-08-15 05:17:00,
2013-08-15 01:24:00,54.0,52.0,30.14,SSE,163,0.0,0.0,90,0.00,,,0.00,0.0,meteohub,2013-08-15 05:24:00,
2013-08-15 01:30:00,54.0,52.0,30.13,SSE,163,0.0,0.0,90,0.00,,,0.00,0.0,meteohub,2013-08-15 05:30:00,
2013-08-15 01:36:00,53.8,51.8,30.13,SSE,163,0.0,0.0,90,0.00,,,0.00,0.0,meteohub,2013-08-15 05:36:00,
2013-08-15 01:42:00,53.8,51.8,30.14,SSE,163,0.0,0.0,90,0.00,,,0.00,0.0,meteohub,2013-08-15 05:42:00,
2013-08-15 01:48:00,53.8,52.2,30.13,SSE,163,0.0,0.0,91,0.00,,,0.00,0.0,meteohub,2013-08-15 05:48:00,
2013-08-15 01:54:00,53.8,52.2,30.13,SSE,163,0.0,0.0,91,0.00,,,0.00,0.0,meteohub,2013-08-15 05:54:00,
2013-08-15 02:00:00,53.8,52.2,30.13,SSE,163,0.0,0.0,91,0.00,,,0.00,0.0,meteohub,2013-08-15 06:00:00,
2013-08-15 02:06:00,53.6,51.6,30.13,SSE,163,0.0,0.0,90,0.00,,,0.00,0.0,meteohub,2013-08-15 06:06:00,
2013-08-15 02:12:00,53.6,52.0,30.13,SSE,163,0.0,0.0,91,0.00,,,0.00,0.0,meteohub,2013-08-15 06:12:00,
2013-08-15 02:18:00,53.6,52.0,30.13,SSE,163,0.0,0.0,91,0.00,,,0.00,0.0,meteohub,2013-08-15 06:18:00,
2013-08-15 02:24:00,53.6,52.0,30.13,SSE,163,0.0,0.0,91,0.00,,,0.00,0.0,meteohub,2013-08-15 06:24:00,
2013-08-15 02:30:00,53.4,51.8,30.12,SSE,163,0.0,0.0,91,0.00,,,0.00,0.0,meteohub,2013-08-15 06:30:00,
2013-08-15 02:37:00,53.4,51.8,30.13,SSE,163,0.0,0.0,91,0.00,,,0.00,0.0,meteohub,2013-08-15 06:37:00,
2013-08-15 02:42:00,53.2,51.6,30.13,SSE,163,0.0,0.0,91,0.00,,,0.00,0.0,meteohub,2013-08-15 06:42:00,
2013-08-15 02:49:00,53.1,51.4,30.13,SSE,163,0.0,0.0,91,0.00,,,0.00,0.0,meteohub,2013-08-15 06:49:00,
2013-08-15 02:55:00,53.1,51.4,30.12,SSE,163,0.0,0.0,91,0.00,,,0.00,0.0,meteohub,2013-08-15 06:55:00,
2013-08-15 03:01:00,53.1,51.4,30.13,SSE,163,0.0,0.0,91,0.00,,,0.00,0.0,meteohub,2013-08-15 07:01:00,
2013-08-15 03:07:00,52.9,51.3,30.13,SSE,163,0.0,0.0,91,0.00,,,0.00,0.0,meteohub,2013-08-15 07:07:00,
2013-08-15 03:13:00,52.9,51.3,30.12,SSE,163,0.0,0.0,91,0.00,,,0.00,0.0,meteohub,2013-08-15 07:13:00,
2013-08-15 03:19:00,52.7,51.1,30.13,SSE,163,0.0,0.0,91,0.00,,,0.00,0.0,meteohub,2013-08-15 07:19:00,
2013-08-15 03:25:00,52.7,51.1,30.13,South,171,0.0,0.0,91,0.00,,,0.00,0.0,meteohub,2013-08-15 07:25:00,
2013-08-15 03:31:00,52.7,51.1,30.13,South,171,0.0,0.0,91,0.00,,,0.00,0.0,meteohub,2013-08-15 07:31:00,
2013-08-15 03:37:00,52.5,50.9,30.13,South,171,0.0,0.0,91,0.00,,,0.00,0.0,meteohub,2013-08-15 07:37:00,
2013-08-15 03:43:00,52.5,50.9,30.14,South,171,0.0,0.0,91,0.00,,,0.00,0.0,meteohub,2013-08-15 07:43:00,
2013-08-15 03:49:00,52.2,50.5,30.13,South,171,0.0,0.0,91,0.00,,,0.00,0.0,meteohub,2013-08-15 07:49:00,
2013-08-15 03:56:00,52.2,50.5,30.13,South,171,0.0,0.0,91,0.00,,,0.00,0.0,meteohub,2013-08-15 07:56:00,
2013-08-15 04:02:00,52.2,50.5,30.13,South,171,0.0,0.0,91,0.00,,,0.00,0.0,meteohub,2013-08-15 08:02:00,
2013-08-15 04:08:00,52.0,50.4,30.13,South,171,0.0,0.0,91,0.00,,,0.00,0.0,meteohub,2013-08-15 08:08:00,
2013-08-15 04:14:00,52.0,50.4,30.13,South,171,0.0,0.0,91,0.00,,,0.00,0.0,meteohub,2013-08-15 08:14:00,
2013-08-15 04:20:00,52.0,50.4,30.13,South,171,0.0,0.0,91,0.00,,,0.00,0.0,meteohub,2013-08-15 08:20:00,
2013-08-15 04:26:00,52.0,50.4,30.13,South,171,0.0,0.0,91,0.00,,,0.00,0.0,meteohub,2013-08-15 08:26:00,
2013-08-15 04:32:00,52.0,50.4,30.13,South,171,0.0,0.0,91,0.00,,,0.00,0.0,meteohub,2013-08-15 08:32:00,
2013-08-15 04:38:00,52.0,50.4,30.13,South,171,0.0,0.0,91,0.00,,,0.00,0.0,meteohub,2013-08-15 08:38:00,
2013-08-15 04:44:00,52.0,50.4,30.13,South,171,0.0,0.0,91,0.00,,,0.00,0.0,meteohub,2013-08-15 08:44:00,
2013-08-15 04:50:00,51.8,50.2,30.13,South,171,0.0,0.0,91,0.00,,,0.00,0.0,meteohub,2013-08-15 08:50:00,
2013-08-15 04:56:00,51.8,50.2,30.13,South,171,0.0,0.0,91,0.00,,,0.00,0.0,meteohub,2013-08-15 08:56:00,
2013-08-15 05:02:00,51.6,50.0,30.14,South,171,0.0,0.0,91,0.00,,,0.00,0.0,meteohub,2013-08-15 09:02:00,
2013-08-15 05:08:00,51.6,50.0,30.14,South,171,0.0,0.0,91,0.00,,,0.00,0.0,meteohub,2013-08-15 09:08:00,
2013-08-15 05:14:00,51.3,49.6,30.14,South,171,0.0,0.0,91,0.00,,,0.00,0.0,meteohub,2013-08-15 09:14:00,
2013-08-15 05:21:00,51.3,49.6,30.14,South,171,0.0,0.0,91,0.00,,,0.00,0.0,meteohub,2013-08-15 09:21:00,
2013-08-15 05:27:00,51.1,49.5,30.14,South,171,0.0,0.0,91,0.00,,,0.00,0.0,meteohub,2013-08-15 09:27:00,
2013-08-15 05:33:00,51.1,49.5,30.14,South,171,0.0,0.0,91,0.00,,,0.00,0.0,meteohub,2013-08-15 09:33:00,
2013-08-15 05:39:00,51.1,49.5,30.14,South,171,0.0,0.0,91,0.00,,,0.00,0.0,meteohub,2013-08-15 09:39:00,
2013-08-15 05:45:00,50.9,49.3,30.14,South,171,0.0,0.0,91,0.00,,,0.00,0.0,meteohub,2013-08-15 09:45:00,
2013-08-15 05:51:00,50.9,49.3,30.15,South,171,0.0,0.0,91,0.00,,,0.00,0.0,meteohub,2013-08-15 09:51:00,
2013-08-15 05:57:00,50.7,49.1,30.15,South,171,0.0,0.0,91,0.00,,,0.00,0.0,meteohub,2013-08-15 09:57:00,
2013-08-15 06:03:00,50.5,48.9,30.15,South,171,0.0,0.0,91,0.00,,,0.00,0.0,meteohub,2013-08-15 10:03:00,
2013-08-15 06:09:00,50.4,48.7,30.15,South,171,0.0,0.0,91,0.00,,,0.00,0.0,meteohub,2013-08-15 10:09:00,
2013-08-15 06:15:00,50.4,48.7,30.15,South,171,0.0,0.0,91,0.00,,,0.00,0.0,meteohub,2013-08-15 10:15:00,
2013-08-15 06:21:00,50.2,48.6,30.15,South,171,0.0,0.0,91,0.00,,,0.00,0.0,meteohub,2013-08-15 10:21:00,
2013-08-15 06:28:00,50.2,48.6,30.15,South,171,0.0,0.0,91,0.00,,,0.00,0.0,meteohub,2013-08-15 10:28:00,
2013-08-15 06:34:00,50.0,48.4,30.16,South,171,0.0,0.0,91,0.00,,,0.00,0.0,meteohub,2013-08-15 10:34:00,
2013-08-15 06:40:00,50.0,48.4,30.16,South,171,0.0,0.0,91,0.00,,,0.00,5.0,meteohub,2013-08-15 10:40:00,
2013-08-15 06:46:00,50.0,48.4,30.16,South,171,0.0,0.0,91,0.00,,,0.00,7.0,meteohub,2013-08-15 10:46:00,
2013-08-15 06:52:00,50.0,48.4,30.17,South,171,0.0,0.0,91,0.00,,,0.00,11.0,meteohub,2013-08-15 10:52:00,
2013-08-15 06:58:00,50.0,48.4,30.17,South,171,0.0,0.0,91,0.00,,,0.00,14.0,meteohub,2013-08-15 10:58:00,
2013-08-15 07:04:00,50.0,48.4,30.17,South,171,0.0,0.0,91,0.00,,,0.00,18.0,meteohub,2013-08-15 11:04:00,
2013-08-15 07:10:00,49.8,48.2,30.17,South,171,0.0,0.0,91,0.00,,,0.00,23.0,meteohub,2013-08-15 11:10:00,
2013-08-15 07:16:00,49.8,48.2,30.17,South,171,0.0,0.0,91,0.00,,,0.00,28.0,meteohub,2013-08-15 11:16:00,
2013-08-15 07:22:00,50.0,48.6,30.18,South,171,0.0,0.0,92,0.00,,,0.00,46.0,meteohub,2013-08-15 11:22:00,
2013-08-15 07:28:00,50.2,48.7,30.18,South,171,0.0,0.0,92,0.00,,,0.00,69.0,meteohub,2013-08-15 11:28:00,
2013-08-15 07:34:00,50.4,48.9,30.18,South,171,0.0,0.0,92,0.00,,,0.00,93.0,meteohub,2013-08-15 11:34:00,
2013-08-15 07:40:00,50.9,49.5,30.18,South,171,0.0,0.0,92,0.00,,,0.00,77.0,meteohub,2013-08-15 11:40:00,
2013-08-15 07:47:00,51.1,49.6,30.18,South,171,0.0,0.0,92,0.00,,,0.00,81.0,meteohub,2013-08-15 11:47:00,
2013-08-15 07:52:00,51.4,50.0,30.18,South,171,0.0,0.0,92,0.00,,,0.00,111.0,meteohub,2013-08-15 11:52:00,
2013-08-15 07:59:00,51.6,50.2,30.18,South,171,0.0,0.0,92,0.00,,,0.00,128.0,meteohub,2013-08-15 11:59:00,
2013-08-15 08:05:00,52.0,50.5,30.19,South,171,0.0,0.0,92,0.00,,,0.00,128.0,meteohub,2013-08-15 12:05:00,
2013-08-15 08:11:00,52.2,50.7,30.19,South,171,0.0,0.0,92,0.00,,,0.00,118.0,meteohub,2013-08-15 12:11:00,
2013-08-15 08:17:00,52.7,51.3,30.19,South,171,0.0,0.0,92,0.00,,,0.00,107.0,meteohub,2013-08-15 12:17:00,
2013-08-15 08:23:00,53.1,51.6,30.19,South,171,0.0,0.0,92,0.00,,,0.00,125.0,meteohub,2013-08-15 12:23:00,
2013-08-15 08:29:00,53.2,51.8,30.20,South,171,0.0,0.0,92,0.00,,,0.00,158.0,meteohub,2013-08-15 12:29:00,
2013-08-15 08:35:00,53.8,52.3,30.20,South,171,0.0,0.0,92,0.00,,,0.00,204.0,meteohub,2013-08-15 12:35:00,
2013-08-15 08:41:00,54.1,52.7,30.20,South,171,0.0,0.0,92,0.00,,,0.00,244.0,meteohub,2013-08-15 12:41:00,
2013-08-15 08:47:00,54.5,52.9,30.19,South,171,0.0,0.0,91,0.00,,,0.00,246.0,meteohub,2013-08-15 12:47:00,
2013-08-15 08:53:00,55.0,53.4,30.20,South,171,0.0,0.0,91,0.00,,,0.00,186.0,meteohub,2013-08-15 12:53:00,
2013-08-15 08:59:00,55.4,53.4,30.20,South,171,0.0,0.0,90,0.00,,,0.00,239.0,meteohub,2013-08-15 12:59:00,
2013-08-15 09:06:00,56.3,54.3,30.19,South,171,0.0,0.0,90,0.00,,,0.00,381.0,meteohub,2013-08-15 13:06:00,
2013-08-15 09:12:00,57.0,54.7,30.20,South,171,0.0,0.0,89,0.00,,,0.00,432.0,meteohub,2013-08-15 13:12:00,
2013-08-15 09:18:00,57.7,55.0,30.19,South,171,0.0,0.0,88,0.00,,,0.00,327.0,meteohub,2013-08-15 13:18:00,
2013-08-15 09:24:00,58.3,55.4,30.19,South,171,0.0,0.0,87,0.00,,,0.00,381.0,meteohub,2013-08-15 13:24:00,
2013-08-15 09:30:00,59.0,56.1,30.19,South,171,0.0,0.0,87,0.00,,,0.00,596.0,meteohub,2013-08-15 13:30:00,
2013-08-15 09:36:00,60.1,57.2,30.19,South,171,0.0,0.0,87,0.00,,,0.00,617.0,meteohub,2013-08-15 13:36:00,
2013-08-15 09:42:00,61.2,57.2,30.19,South,171,0.0,0.0,84,0.00,,,0.00,635.0,meteohub,2013-08-15 13:42:00,
2013-08-15 09:48:00,62.4,57.9,30.19,SSE,162,0.0,0.0,82,0.00,,,0.00,661.0,meteohub,2013-08-15 13:48:00,
2013-08-15 09:54:00,63.5,58.6,30.19,SSE,162,0.0,0.0,81,0.00,,,0.00,682.0,meteohub,2013-08-15 13:54:00,
2013-08-15 10:00:00,64.8,58.8,30.19,SSE,162,0.0,0.0,78,0.00,,,0.00,696.0,meteohub,2013-08-15 14:00:00,
2013-08-15 10:06:00,66.0,57.9,30.19,SSE,162,0.0,0.0,72,0.00,,,0.00,712.0,meteohub,2013-08-15 14:06:00,
2013-08-15 10:12:00,66.9,56.8,30.20,NW,311,0.0,0.0,67,0.00,,,0.00,726.0,meteohub,2013-08-15 14:12:00,
2013-08-15 10:19:00,68.0,59.0,30.19,ENE,59,0.0,0.0,70,0.00,,,0.00,747.0,meteohub,2013-08-15 14:19:00,
2013-08-15 10:25:00,68.9,59.2,30.19,SE,140,0.0,0.0,68,0.00,,,0.00,765.0,meteohub,2013-08-15 14:25:00,
2013-08-15 10:31:00,69.3,54.7,30.19,East,91,0.0,0.0,57,0.00,,,0.00,779.0,meteohub,2013-08-15 14:31:00,
2013-08-15 10:37:00,69.6,55.0,30.19,North,355,0.0,0.0,57,0.00,,,0.00,791.0,meteohub,2013-08-15 14:37:00,
2013-08-15 10:43:00,70.0,54.0,30.19,East,93,0.0,0.0,54,0.00,,,0.00,802.0,meteohub,2013-08-15 14:43:00,
2013-08-15 10:52:00,69.8,55.8,30.19,ENE,71,0.0,0.0,58,0.00,,,0.00,821.0,meteohub,2013-08-15 14:52:00,
2013-08-15 10:59:00,70.0,56.3,30.19,ENE,68,0.0,6.0,59,0.00,,,0.00,838.0,meteohub,2013-08-15 14:59:00,
2013-08-15 11:05:00,70.0,55.0,30.19,SE,142,0.0,7.0,56,0.00,,,0.00,847.0,meteohub,2013-08-15 15:05:00,
2013-08-15 11:11:00,70.2,55.2,30.19,East,96,0.0,7.0,56,0.00,,,0.00,861.0,meteohub,2013-08-15 15:11:00,
2013-08-15 11:17:00,70.5,55.4,30.19,ENE,71,0.0,7.0,56,0.00,,,0.00,872.0,meteohub,2013-08-15 15:17:00,
2013-08-15 11:24:00,71.1,57.7,30.19,ENE,73,0.0,7.0,60,0.00,,,0.00,879.0,meteohub,2013-08-15 15:24:00,
2013-08-15 11:30:00,71.8,56.7,30.18,SE,143,8.0,8.0,56,0.00,,,0.00,907.0,meteohub,2013-08-15 15:30:00,
2013-08-15 11:36:00,71.6,54.5,30.18,ESE,107,3.0,11.0,52,0.00,,,0.00,921.0,meteohub,2013-08-15 15:36:00,
2013-08-15 11:42:00,71.4,55.4,30.18,ESE,119,0.0,11.0,54,0.00,,,0.00,928.0,meteohub,2013-08-15 15:42:00,
2013-08-15 11:48:00,71.6,55.6,30.18,ESE,106,3.0,6.0,54,0.00,,,0.00,997.0,meteohub,2013-08-15 15:48:00,
2013-08-15 11:54:00,71.8,55.2,30.18,NE,51,3.0,6.0,53,0.00,,,0.00,1027.0,meteohub,2013-08-15 15:54:00,
2013-08-15 12:00:00,72.3,55.8,30.18,ENE,76,0.0,10.0,53,0.00,,,0.00,1058.0,meteohub,2013-08-15 16:00:00,
2013-08-15 12:06:00,72.7,55.6,30.18,SSW,193,4.0,10.0,52,0.00,,,0.00,1150.0,meteohub,2013-08-15 16:06:00,
2013-08-15 12:12:00,72.3,54.7,30.18,SE,146,5.0,11.0,51,0.00,,,0.00,1129.0,meteohub,2013-08-15 16:12:00,
2013-08-15 12:19:00,71.8,55.2,30.17,SE,129,0.0,11.0,53,0.00,,,0.00,401.0,meteohub,2013-08-15 16:19:00,
2013-08-15 12:25:00,72.3,58.1,30.18,SE,135,5.0,6.0,58,0.00,,,0.00,1229.0,meteohub,2013-08-15 16:25:00,
2013-08-15 12:31:00,72.7,54.0,30.17,South,176,0.0,5.0,49,0.00,,,0.00,554.0,meteohub,2013-08-15 16:31:00,
2013-08-15 12:37:00,72.3,55.8,30.17,East,99,0.0,6.0,53,0.00,,,0.00,336.0,meteohub,2013-08-15 16:37:00,
2013-08-15 12:43:00,71.8,54.7,30.17,ENE,61,0.0,6.0,52,0.00,,,0.00,313.0,meteohub,2013-08-15 16:43:00,
2013-08-15 12:49:00,71.6,57.4,30.17,ENE,61,0.0,6.0,58,0.00,,,0.00,374.0,meteohub,2013-08-15 16:49:00,
2013-08-15 12:55:00,71.6,55.9,30.17,South,186,0.0,0.0,55,0.00,,,0.00,540.0,meteohub,2013-08-15 16:55:00,
2013-08-15 13:02:00,71.6,57.0,30.16,NNE,33,0.0,0.0,57,0.00,,,0.00,520.0,meteohub,2013-08-15 17:02:00,
2013-08-15 13:08:00,72.0,55.4,30.16,SE,127,0.0,0.0,53,0.00,,,0.00,425.0,meteohub,2013-08-15 17:08:00,
2013-08-15 13:14:00,72.1,56.1,30.16,ENE,75,0.0,0.0,54,0.00,,,0.00,1296.0,meteohub,2013-08-15 17:14:00,
2013-08-15 13:22:00,72.0,55.4,30.16,ESE,113,0.0,4.0,53,0.00,,,0.00,360.0,meteohub,2013-08-15 17:22:00,
2013-08-15 13:29:00,71.6,55.0,30.16,SSE,168,0.0,4.0,53,0.00,,,0.00,531.0,meteohub,2013-08-15 17:29:00,
2013-08-15 13:35:00,71.4,54.0,30.16,SSE,168,0.0,0.0,51,0.00,,,0.00,323.0,meteohub,2013-08-15 17:35:00,
2013-08-15 13:41:00,71.4,55.4,30.16,SSE,168,0.0,0.0,54,0.00,,,0.00,322.0,meteohub,2013-08-15 17:41:00,
2013-08-15 13:48:00,71.4,56.3,30.16,SSE,168,0.0,0.0,56,0.00,,,0.00,339.0,meteohub,2013-08-15 17:48:00,
2013-08-15 13:54:00,71.4,61.9,30.15,SSE,168,0.0,0.0,69,0.00,,,0.00,1088.0,meteohub,2013-08-15 17:54:00,
2013-08-15 14:00:00,71.6,54.5,30.15,South,182,0.0,0.0,52,0.00,,,0.00,316.0,meteohub,2013-08-15 18:00:00,
2013-08-15 14:06:00,71.6,55.6,30.15,South,182,0.0,0.0,54,0.00,,,0.00,297.0,meteohub,2013-08-15 18:06:00,
2013-08-15 14:12:00,71.6,55.6,30.15,SE,137,0.0,0.0,54,0.00,,,0.00,311.0,meteohub,2013-08-15 18:12:00,
2013-08-15 14:18:00,71.6,57.0,30.15,SE,137,0.0,0.0,57,0.00,,,0.00,1250.0,meteohub,2013-08-15 18:18:00,
2013-08-15 14:25:00,72.0,55.9,30.14,NE,53,0.0,0.0,54,0.00,,,0.00,476.0,meteohub,2013-08-15 18:25:00,
2013-08-15 14:31:00,72.3,55.2,30.14,NE,37,0.0,5.0,52,0.00,,,0.00,306.0,meteohub,2013-08-15 18:31:00,
2013-08-15 14:38:00,72.5,58.3,30.14,East,80,0.0,5.0,58,0.00,,,0.00,285.0,meteohub,2013-08-15 18:38:00,
2013-08-15 14:44:00,72.5,56.8,30.14,East,92,0.0,0.0,55,0.00,,,0.00,288.0,meteohub,2013-08-15 18:44:00,
2013-08-15 14:50:00,72.3,58.1,30.14,East,92,0.0,0.0,58,0.00,,,0.00,350.0,meteohub,2013-08-15 18:50:00,
2013-08-15 14:56:00,72.0,59.2,30.14,East,92,0.0,0.0,61,0.00,,,0.00,432.0,meteohub,2013-08-15 18:56:00,
2013-08-15 15:02:00,72.5,59.2,30.14,East,92,0.0,0.0,60,0.00,,,0.00,397.0,meteohub,2013-08-15 19:02:00,
2013-08-15 15:08:00,72.9,56.7,30.14,East,88,0.0,0.0,54,0.00,,,0.00,318.0,meteohub,2013-08-15 19:08:00,
2013-08-15 15:14:00,73.0,60.6,30.13,East,88,0.0,0.0,62,0.00,,,0.00,292.0,meteohub,2013-08-15 19:14:00,
2013-08-15 15:21:00,73.0,58.8,30.13,East,88,0.0,0.0,58,0.00,,,0.00,248.0,meteohub,2013-08-15 19:21:00,
2013-08-15 15:27:00,72.7,59.4,30.14,East,88,0.0,0.0,60,0.00,,,0.00,281.0,meteohub,2013-08-15 19:27:00,
2013-08-15 15:33:00,72.1,60.1,30.14,East,88,0.0,0.0,63,0.00,,,0.00,272.0,meteohub,2013-08-15 19:33:00,
2013-08-15 15:40:00,72.0,56.8,30.13,East,88,0.0,0.0,56,0.00,,,0.00,373.0,meteohub,2013-08-15 19:40:00,
2013-08-15 15:46:00,72.1,59.7,30.13,East,88,0.0,0.0,62,0.00,,,0.00,664.0,meteohub,2013-08-15 19:46:00,
2013-08-15 15:52:00,72.7,56.1,30.13,East,101,0.0,0.0,53,0.00,,,0.00,867.0,meteohub,2013-08-15 19:52:00,
2013-08-15 15:58:00,73.4,55.8,30.13,East,101,0.0,0.0,51,0.00,,,0.00,719.0,meteohub,2013-08-15 19:58:00,
2013-08-15 16:02:00,73.6,55.4,30.13,East,101,0.0,0.0,50,0.00,,,0.00,691.0,meteohub,2013-08-15 20:02:00,
2013-08-15 16:04:00,73.8,55.0,30.13,East,101,0.0,0.0,49,0.00,,,0.00,765.0,meteohub,2013-08-15 20:04:00,
2013-08-15 16:10:00,74.1,56.3,30.13,SSE,166,2.0,0.0,51,0.00,,,0.00,819.0,meteohub,2013-08-15 20:10:00,
2013-08-15 16:17:00,74.1,56.8,30.12,SSE,148,0.0,4.0,52,0.00,,,0.00,193.0,meteohub,2013-08-15 20:17:00,
2013-08-15 16:22:00,73.8,61.2,30.12,SSE,148,0.0,4.0,62,0.00,,,0.00,366.0,meteohub,2013-08-15 20:22:00,
2013-08-15 16:29:00,73.8,61.2,30.11,West,265,0.0,3.0,62,0.00,,,0.00,782.0,meteohub,2013-08-15 20:29:00,
2013-08-15 16:35:00,73.8,57.6,30.11,South,180,0.0,0.0,54,0.00,,,0.00,752.0,meteohub,2013-08-15 20:35:00,
2013-08-15 16:42:00,74.3,56.5,30.11,West,267,2.0,0.0,51,0.00,,,0.00,708.0,meteohub,2013-08-15 20:42:00,
2013-08-15 16:48:00,74.5,57.2,30.11,ENE,72,1.0,6.0,52,0.00,,,0.00,670.0,meteohub,2013-08-15 20:48:00,
2013-08-15 16:54:00,74.7,57.9,30.12,ENE,71,0.0,6.0,53,0.00,,,0.00,631.0,meteohub,2013-08-15 20:54:00,
2013-08-15 17:01:00,75.2,57.4,30.12,SE,130,4.0,6.0,51,0.00,,,0.00,596.0,meteohub,2013-08-15 21:01:00,
2013-08-15 17:07:00,74.7,57.4,30.12,SSE,153,0.0,6.0,52,0.00,,,0.00,566.0,meteohub,2013-08-15 21:07:00,
2013-08-15 17:13:00,74.3,55.0,30.11,SE,125,0.0,6.0,48,0.00,,,0.00,555.0,meteohub,2013-08-15 21:13:00,
2013-08-15 17:19:00,74.5,56.7,30.12,SSE,158,0.0,6.0,51,0.00,,,0.00,543.0,meteohub,2013-08-15 21:19:00,
2013-08-15 17:25:00,74.5,55.8,30.11,SSE,158,0.0,0.0,49,0.00,,,0.00,165.0,meteohub,2013-08-15 21:25:00,
2013-08-15 17:31:00,74.1,55.4,30.12,SSE,158,0.0,0.0,49,0.00,,,0.00,483.0,meteohub,2013-08-15 21:31:00,
2013-08-15 17:37:00,73.6,54.3,30.12,SSE,158,0.0,0.0,48,0.00,,,0.00,165.0,meteohub,2013-08-15 21:37:00,
2013-08-15 17:44:00,73.2,59.4,30.12,SSE,158,0.0,0.0,59,0.00,,,0.00,118.0,meteohub,2013-08-15 21:44:00,
2013-08-15 17:50:00,72.5,58.6,30.12,SSE,158,0.0,0.0,59,0.00,,,0.00,109.0,meteohub,2013-08-15 21:50:00,
2013-08-15 17:56:00,71.8,59.4,30.12,SSE,158,0.0,0.0,62,0.00,,,0.00,236.0,meteohub,2013-08-15 21:56:00,
2013-08-15 18:02:00,71.2,60.4,30.11,SSE,158,0.0,0.0,66,0.00,,,0.00,160.0,meteohub,2013-08-15 22:02:00,
2013-08-15 18:08:00,71.2,61.0,30.11,SSE,158,0.0,0.0,67,0.00,,,0.00,132.0,meteohub,2013-08-15 22:08:00,
2013-08-15 18:14:00,71.1,61.9,30.11,SSE,158,0.0,0.0,70,0.00,,,0.00,95.0,meteohub,2013-08-15 22:14:00,
2013-08-15 18:20:00,70.7,61.5,30.11,SSE,158,0.0,0.0,70,0.00,,,0.00,292.0,meteohub,2013-08-15 22:20:00,
2013-08-15 18:26:00,70.5,62.6,30.10,SSE,158,0.0,0.0,73,0.00,,,0.00,246.0,meteohub,2013-08-15 22:26:00,
2013-08-15 18:32:00,70.3,62.4,30.11,SSE,158,0.0,0.0,73,0.00,,,0.00,84.0,meteohub,2013-08-15 22:32:00,
2013-08-15 18:39:00,70.3,62.4,30.10,SSE,158,0.0,0.0,73,0.00,,,0.00,207.0,meteohub,2013-08-15 22:39:00,
2013-08-15 18:45:00,70.7,63.1,30.10,SSE,158,0.0,0.0,74,0.00,,,0.00,183.0,meteohub,2013-08-15 22:45:00,
2013-08-15 18:51:00,71.1,63.1,30.10,SSE,158,0.0,0.0,73,0.00,,,0.00,158.0,meteohub,2013-08-15 22:51:00,
2013-08-15 18:57:00,71.1,62.4,30.11,SSE,158,0.0,0.0,71,0.00,,,0.00,128.0,meteohub,2013-08-15 22:57:00,
2013-08-15 19:03:00,70.7,62.1,30.11,SSE,158,0.0,0.0,71,0.00,,,0.00,91.0,meteohub,2013-08-15 23:03:00,
2013-08-15 19:09:00,70.0,61.7,30.11,SSE,158,0.0,0.0,72,0.00,,,0.00,30.0,meteohub,2013-08-15 23:09:00,
2013-08-15 19:15:00,68.9,61.0,30.11,SSE,158,0.0,0.0,73,0.00,,,0.00,62.0,meteohub,2013-08-15 23:15:00,
2013-08-15 19:21:00,68.0,60.8,30.11,SSE,158,0.0,0.0,75,0.00,,,0.00,25.0,meteohub,2013-08-15 23:21:00,
2013-08-15 19:28:00,67.3,60.6,30.11,SSE,158,0.0,0.0,76,0.00,,,0.00,21.0,meteohub,2013-08-15 23:28:00,
2013-08-15 19:34:00,66.4,59.7,30.12,SSE,158,0.0,0.0,76,0.00,,,0.00,18.0,meteohub,2013-08-15 23:34:00,
2013-08-15 19:40:00,65.5,59.2,30.12,SSE,158,0.0,0.0,77,0.00,,,0.00,16.0,meteohub,2013-08-15 23:40:00,
2013-08-15 19:46:00,64.8,59.2,30.12,SSE,158,0.0,0.0,79,0.00,,,0.00,11.0,meteohub,2013-08-15 23:46:00,
2013-08-15 19:52:00,64.2,59.0,30.12,SSE,158,0.0,0.0,80,0.00,,,0.00,7.0,meteohub,2013-08-15 23:52:00,
2013-08-15 19:58:00,63.5,58.6,30.13,SSE,158,0.0,0.0,81,0.00,,,0.00,5.0,meteohub,2013-08-15 23:58:00,
2013-08-15 20:04:00,62.8,58.3,30.13,SSE,158,0.0,0.0,82,0.00,,,0.00,0.0,meteohub,2013-08-16 00:04:00,
2013-08-15 20:10:00,62.4,58.1,30.13,SSE,158,0.0,0.0,83,0.00,,,0.00,0.0,meteohub,2013-08-16 00:10:00,
2013-08-15 20:16:00,61.9,57.9,30.13,SSE,158,0.0,0.0,84,0.00,,,0.00,0.0,meteohub,2013-08-16 00:16:00,
2013-08-15 20:22:00,61.5,57.9,30.13,SSE,158,0.0,0.0,85,0.00,,,0.00,0.0,meteohub,2013-08-16 00:22:00,
2013-08-15 20:28:00,61.0,57.4,30.13,SSE,158,0.0,0.0,85,0.00,,,0.00,0.0,meteohub,2013-08-16 00:28:00,
2013-08-15 20:35:00,60.6,57.4,30.14,SSE,158,0.0,0.0,86,0.00,,,0.00,0.0,meteohub,2013-08-16 00:35:00,
2013-08-15 20:41:00,60.3,57.0,30.14,SSE,158,0.0,0.0,86,0.00,,,0.00,0.0,meteohub,2013-08-16 00:41:00,
2013-08-15 20:47:00,60.1,57.2,30.14,SSE,158,0.0,0.0,87,0.00,,,0.00,0.0,meteohub,2013-08-16 00:47:00,
2013-08-15 20:53:00,59.7,56.8,30.15,SSE,158,0.0,0.0,87,0.00,,,0.00,0.0,meteohub,2013-08-16 00:53:00,
2013-08-15 20:59:00,59.5,56.8,30.15,SSE,158,0.0,0.0,88,0.00,,,0.00,0.0,meteohub,2013-08-16 00:59:00,
2013-08-15 21:06:00,59.4,56.7,30.15,SSE,158,0.0,0.0,88,0.00,,,0.00,0.0,meteohub,2013-08-16 01:06:00,
2013-08-15 21:12:00,59.2,56.5,30.15,SSE,158,0.0,0.0,88,0.00,,,0.00,0.0,meteohub,2013-08-16 01:12:00,
2013-08-15 21:18:00,59.0,56.3,30.15,SSE,158,0.0,0.0,88,0.00,,,0.00,0.0,meteohub,2013-08-16 01:18:00,
2013-08-15 21:24:00,58.8,56.1,30.15,SSE,158,0.0,0.0,88,0.00,,,0.00,0.0,meteohub,2013-08-16 01:24:00,
2013-08-15 21:37:00,58.5,56.1,30.16,SSE,158,0.0,0.0,89,0.00,,,0.00,0.0,meteohub,2013-08-16 01:37:00,
2013-08-15 21:42:00,58.3,55.9,30.16,SSE,158,0.0,0.0,89,0.00,,,0.00,0.0,meteohub,2013-08-16 01:42:00,
2013-08-15 21:49:00,58.1,55.8,30.16,SSE,158,0.0,0.0,89,0.00,,,0.00,0.0,meteohub,2013-08-16 01:49:00,
2013-08-15 21:55:00,57.9,55.6,30.16,SSE,158,0.0,0.0,89,0.00,,,0.00,0.0,meteohub,2013-08-16 01:55:00,
2013-08-15 22:01:00,57.7,55.4,30.17,SSE,158,0.0,0.0,89,0.00,,,0.00,0.0,meteohub,2013-08-16 02:01:00,
2013-08-15 22:07:00,57.6,55.2,30.17,SSE,158,0.0,0.0,89,0.00,,,0.00,0.0,meteohub,2013-08-16 02:07:00,
2013-08-15 22:13:00,57.4,55.4,30.17,SSE,158,0.0,0.0,90,0.00,,,0.00,0.0,meteohub,2013-08-16 02:13:00,
2013-08-15 22:19:00,57.2,55.2,30.17,SSE,158,0.0,0.0,90,0.00,,,0.00,0.0,meteohub,2013-08-16 02:19:00,
2013-08-15 22:25:00,57.2,55.2,30.17,SSE,158,0.0,0.0,90,0.00,,,0.00,0.0,meteohub,2013-08-16 02:25:00,
2013-08-15 22:31:00,57.0,55.0,30.17,SSE,158,0.0,0.0,90,0.00,,,0.00,0.0,meteohub,2013-08-16 02:31:00,
2013-08-15 22:41:00,56.8,54.9,30.17,SSE,158,0.0,0.0,90,0.00,,,0.00,0.0,meteohub,2013-08-16 02:41:00,
2013-08-15 22:47:00,56.7,54.7,30.17,SSE,158,0.0,0.0,90,0.00,,,0.00,0.0,meteohub,2013-08-16 02:47:00,
2013-08-15 22:53:00,56.5,54.5,30.17,SSE,158,0.0,0.0,90,0.00,,,0.00,0.0,meteohub,2013-08-16 02:53:00,
2013-08-15 22:59:00,56.3,54.3,30.17,SSE,158,0.0,0.0,90,0.00,,,0.00,0.0,meteohub,2013-08-16 02:59:00,
2013-08-15 23:05:00,56.3,54.3,30.17,SSE,158,0.0,0.0,90,0.00,,,0.00,0.0,meteohub,2013-08-16 03:05:00,
2013-08-15 23:11:00,56.1,54.1,30.17,SSE,158,0.0,0.0,90,0.00,,,0.00,0.0,meteohub,2013-08-16 03:11:00,
2013-08-15 23:17:00,55.9,54.0,30.17,SSE,158,0.0,0.0,90,0.00,,,0.00,0.0,meteohub,2013-08-16 03:17:00,
2013-08-15 23:23:00,55.8,53.8,30.17,SSE,158,0.0,0.0,90,0.00,,,0.00,0.0,meteohub,2013-08-16 03:23:00,
2013-08-15 23:30:00,55.8,53.8,30.17,SSE,158,0.0,0.0,90,0.00,,,0.00,0.0,meteohub,2013-08-16 03:30:00,
2013-08-15 23:36:00,55.6,53.6,30.17,SSE,158,0.0,0.0,90,0.00,,,0.00,0.0,meteohub,2013-08-16 03:36:00,
2013-08-15 23:42:00,55.6,53.6,30.17,SSE,158,0.0,0.0,90,0.00,,,0.00,0.0,meteohub,2013-08-16 03:42:00,
2013-08-15 23:48:00,55.4,53.4,30.17,SSE,158,0.0,0.0,90,0.00,,,0.00,0.0,meteohub,2013-08-16 03:48:00,
2013-08-15 23:54:00,55.2,53.2,30.17,SSE,158,0.0,0.0,90,0.00,,,0.00,0.0,meteohub,2013-08-16 03:54:00,